sensor_id;sensor_type;location;lat;lon;timestamp;P1;durP1;ratioP1;P2;durP2;ratioP2
49193;SDS011;35029;50.804;12.866;2024-02-04T00:01:39;1.13;;;0.82;;
49193;SDS011;35029;50.804;12.866;2024-02-04T00:04:05;1.30;;;1.20;;
49193;SDS011;35029;50.804;12.866;2024-02-04T00:06:31;1.00;;;1.00;;
49193;SDS011;35029;50.804;12.866;2024-02-04T00:08:56;1.02;;;1.00;;
49193;SDS011;35029;50.804;12.866;2024-02-04T00:11:22;1.15;;;1.05;;
49193;SDS011;35029;50.804;12.866;2024-02-04T00:13:48;1.10;;;0.80;;
49193;SDS011;35029;50.804;12.866;2024-02-04T00:16:14;1.20;;;1.10;;
49193;SDS011;35029;50.804;12.866;2024-02-04T00:18:39;1.30;;;1.20;;
49193;SDS011;35029;50.804;12.866;2024-02-04T00:21:05;1.20;;;1.05;;
49193;SDS011;35029;50.804;12.866;2024-02-04T00:23:30;1.05;;;0.90;;
49193;SDS011;35029;50.804;12.866;2024-02-04T00:25:56;1.08;;;0.95;;
49193;SDS011;35029;50.804;12.866;2024-02-04T00:28:21;1.00;;;0.90;;
49193;SDS011;35029;50.804;12.866;2024-02-04T00:30:47;0.90;;;0.90;;
49193;SDS011;35029;50.804;12.866;2024-02-04T00:33:15;1.60;;;0.93;;
49193;SDS011;35029;50.804;12.866;2024-02-04T00:35:41;1.40;;;1.30;;
49193;SDS011;35029;50.804;12.866;2024-02-04T00:38:07;1.55;;;1.10;;
49193;SDS011;35029;50.804;12.866;2024-02-04T00:40:34;2.22;;;1.05;;
49193;SDS011;35029;50.804;12.866;2024-02-04T00:42:59;1.35;;;1.10;;
49193;SDS011;35029;50.804;12.866;2024-02-04T00:45:25;0.90;;;0.90;;
49193;SDS011;35029;50.804;12.866;2024-02-04T00:47:51;2.08;;;1.15;;
49193;SDS011;35029;50.804;12.866;2024-02-04T00:50:17;1.42;;;1.30;;
49193;SDS011;35029;50.804;12.866;2024-02-04T00:52:44;1.60;;;1.48;;
49193;SDS011;35029;50.804;12.866;2024-02-04T00:55:09;1.92;;;1.40;;
49193;SDS011;35029;50.804;12.866;2024-02-04T00:57:35;2.15;;;1.70;;
49193;SDS011;35029;50.804;12.866;2024-02-04T01:00:00;1.65;;;1.42;;
49193;SDS011;35029;50.804;12.866;2024-02-04T01:02:26;1.50;;;1.40;;
49193;SDS011;35029;50.804;12.866;2024-02-04T01:04:52;2.03;;;1.60;;
49193;SDS011;35029;50.804;12.866;2024-02-04T01:07:18;1.85;;;1.67;;
49193;SDS011;35029;50.804;12.866;2024-02-04T01:09:43;3.28;;;1.95;;
49193;SDS011;35029;50.804;12.866;2024-02-04T01:12:09;1.65;;;1.55;;
49193;SDS011;35029;50.804;12.866;2024-02-04T01:14:34;1.60;;;1.50;;
49193;SDS011;35029;50.804;12.866;2024-02-04T01:17:00;1.65;;;1.55;;
49193;SDS011;35029;50.804;12.866;2024-02-04T01:19:26;1.70;;;1.35;;
49193;SDS011;35029;50.804;12.866;2024-02-04T01:21:51;1.48;;;1.20;;
49193;SDS011;35029;50.804;12.866;2024-02-04T01:24:17;1.88;;;1.42;;
49193;SDS011;35029;50.804;12.866;2024-02-04T01:26:42;2.53;;;1.88;;
49193;SDS011;35029;50.804;12.866;2024-02-04T01:29:08;1.50;;;1.40;;
49193;SDS011;35029;50.804;12.866;2024-02-04T01:31:33;1.60;;;1.50;;
49193;SDS011;35029;50.804;12.866;2024-02-04T01:33:59;2.05;;;1.42;;
49193;SDS011;35029;50.804;12.866;2024-02-04T01:36:25;3.47;;;1.42;;
49193;SDS011;35029;50.804;12.866;2024-02-04T01:38:51;1.95;;;1.83;;
49193;SDS011;35029;50.804;12.866;2024-02-04T01:41:16;1.73;;;1.50;;
49193;SDS011;35029;50.804;12.866;2024-02-04T01:43:42;2.10;;;1.50;;
49193;SDS011;35029;50.804;12.866;2024-02-04T01:46:08;2.67;;;1.67;;
49193;SDS011;35029;50.804;12.866;2024-02-04T01:48:34;2.75;;;1.40;;
49193;SDS011;35029;50.804;12.866;2024-02-04T01:50:59;2.25;;;2.05;;
49193;SDS011;35029;50.804;12.866;2024-02-04T01:53:27;2.13;;;1.80;;
49193;SDS011;35029;50.804;12.866;2024-02-04T01:55:54;2.10;;;1.58;;
49193;SDS011;35029;50.804;12.866;2024-02-04T01:58:21;1.80;;;1.60;;
49193;SDS011;35029;50.804;12.866;2024-02-04T02:00:48;1.95;;;1.52;;
49193;SDS011;35029;50.804;12.866;2024-02-04T02:03:17;2.42;;;1.90;;
49193;SDS011;35029;50.804;12.866;2024-02-04T02:05:43;2.22;;;1.70;;
49193;SDS011;35029;50.804;12.866;2024-02-04T02:08:09;1.85;;;1.73;;
49193;SDS011;35029;50.804;12.866;2024-02-04T02:10:35;1.58;;;1.30;;
49193;SDS011;35029;50.804;12.866;2024-02-04T02:13:04;3.00;;;1.90;;
49193;SDS011;35029;50.804;12.866;2024-02-04T02:15:49;1.48;;;1.35;;
49193;SDS011;35029;50.804;12.866;2024-02-04T02:18:25;2.78;;;1.58;;
49193;SDS011;35029;50.804;12.866;2024-02-04T02:23:48;2.05;;;1.85;;
49193;SDS011;35029;50.804;12.866;2024-02-04T02:26:33;2.17;;;1.75;;
49193;SDS011;35029;50.804;12.866;2024-02-04T02:29:03;1.83;;;1.63;;
49193;SDS011;35029;50.804;12.866;2024-02-04T02:31:28;2.20;;;2.00;;
49193;SDS011;35029;50.804;12.866;2024-02-04T02:33:55;2.33;;;1.60;;
49193;SDS011;35029;50.804;12.866;2024-02-04T02:36:21;3.75;;;2.00;;
49193;SDS011;35029;50.804;12.866;2024-02-04T02:41:22;1.88;;;1.63;;
49193;SDS011;35029;50.804;12.866;2024-02-04T02:43:50;3.20;;;1.80;;
49193;SDS011;35029;50.804;12.866;2024-02-04T02:46:18;2.65;;;1.75;;
49193;SDS011;35029;50.804;12.866;2024-02-04T02:48:45;2.28;;;1.80;;
49193;SDS011;35029;50.804;12.866;2024-02-04T02:51:10;1.88;;;1.65;;
49193;SDS011;35029;50.804;12.866;2024-02-04T02:53:36;1.80;;;1.52;;
49193;SDS011;35029;50.804;12.866;2024-02-04T02:56:01;1.95;;;1.75;;
49193;SDS011;35029;50.804;12.866;2024-02-04T02:58:27;3.88;;;1.80;;
49193;SDS011;35029;50.804;12.866;2024-02-04T03:00:53;1.95;;;1.75;;
49193;SDS011;35029;50.804;12.866;2024-02-04T03:03:18;1.55;;;1.45;;
49193;SDS011;35029;50.804;12.866;2024-02-04T03:05:44;1.90;;;1.60;;
49193;SDS011;35029;50.804;12.866;2024-02-04T03:08:12;1.80;;;1.70;;
49193;SDS011;35029;50.804;12.866;2024-02-04T03:10:39;3.22;;;1.60;;
49193;SDS011;35029;50.804;12.866;2024-02-04T03:13:04;1.92;;;1.50;;
49193;SDS011;35029;50.804;12.866;2024-02-04T03:15:30;2.38;;;1.40;;
49193;SDS011;35029;50.804;12.866;2024-02-04T03:17:56;3.30;;;1.60;;
49193;SDS011;35029;50.804;12.866;2024-02-04T03:20:22;2.78;;;1.45;;
49193;SDS011;35029;50.804;12.866;2024-02-04T03:22:47;1.70;;;1.60;;
49193;SDS011;35029;50.804;12.866;2024-02-04T03:25:13;1.50;;;1.40;;
49193;SDS011;35029;50.804;12.866;2024-02-04T03:27:42;2.10;;;1.40;;
49193;SDS011;35029;50.804;12.866;2024-02-04T03:30:09;1.70;;;1.35;;
49193;SDS011;35029;50.804;12.866;2024-02-04T03:32:35;4.55;;;1.75;;
49193;SDS011;35029;50.804;12.866;2024-02-04T03:35:01;2.53;;;1.55;;
49193;SDS011;35029;50.804;12.866;2024-02-04T03:37:27;1.55;;;1.33;;
49193;SDS011;35029;50.804;12.866;2024-02-04T03:39:53;1.75;;;1.25;;
49193;SDS011;35029;50.804;12.866;2024-02-04T03:42:18;2.25;;;1.52;;
49193;SDS011;35029;50.804;12.866;2024-02-04T03:44:46;1.70;;;1.45;;
49193;SDS011;35029;50.804;12.866;2024-02-04T03:47:12;1.45;;;1.35;;
49193;SDS011;35029;50.804;12.866;2024-02-04T03:49:38;1.55;;;1.35;;
49193;SDS011;35029;50.804;12.866;2024-02-04T03:52:03;2.88;;;1.30;;
49193;SDS011;35029;50.804;12.866;2024-02-04T03:54:29;3.55;;;1.33;;
49193;SDS011;35029;50.804;12.866;2024-02-04T03:56:54;1.50;;;1.25;;
49193;SDS011;35029;50.804;12.866;2024-02-04T03:59:20;2.70;;;1.83;;
49193;SDS011;35029;50.804;12.866;2024-02-04T04:01:51;2.50;;;1.40;;
49193;SDS011;35029;50.804;12.866;2024-02-04T04:04:34;3.35;;;1.70;;
49193;SDS011;35029;50.804;12.866;2024-02-04T04:06:59;1.70;;;1.60;;
49193;SDS011;35029;50.804;12.866;2024-02-04T04:09:25;1.70;;;1.40;;
49193;SDS011;35029;50.804;12.866;2024-02-04T04:11:51;2.85;;;1.85;;
49193;SDS011;35029;50.804;12.866;2024-02-04T04:14:16;2.00;;;1.80;;
49193;SDS011;35029;50.804;12.866;2024-02-04T04:16:42;3.13;;;1.75;;
49193;SDS011;35029;50.804;12.866;2024-02-04T04:19:08;2.03;;;1.83;;
49193;SDS011;35029;50.804;12.866;2024-02-04T04:21:34;2.10;;;1.80;;
49193;SDS011;35029;50.804;12.866;2024-02-04T04:24:01;1.60;;;1.50;;
49193;SDS011;35029;50.804;12.866;2024-02-04T04:26:26;1.90;;;1.75;;
49193;SDS011;35029;50.804;12.866;2024-02-04T04:28:52;2.47;;;2.22;;
49193;SDS011;35029;50.804;12.866;2024-02-04T04:31:18;2.72;;;2.13;;
49193;SDS011;35029;50.804;12.866;2024-02-04T04:33:44;3.95;;;2.25;;
49193;SDS011;35029;50.804;12.866;2024-02-04T04:36:10;2.70;;;2.28;;
49193;SDS011;35029;50.804;12.866;2024-02-04T04:38:36;3.05;;;2.22;;
49193;SDS011;35029;50.804;12.866;2024-02-04T04:41:01;3.42;;;2.50;;
49193;SDS011;35029;50.804;12.866;2024-02-04T04:43:27;2.30;;;2.10;;
49193;SDS011;35029;50.804;12.866;2024-02-04T04:45:52;2.53;;;2.10;;
49193;SDS011;35029;50.804;12.866;2024-02-04T04:48:18;2.60;;;2.20;;
49193;SDS011;35029;50.804;12.866;2024-02-04T04:50:43;3.47;;;1.90;;
49193;SDS011;35029;50.804;12.866;2024-02-04T04:53:09;3.83;;;1.98;;
49193;SDS011;35029;50.804;12.866;2024-02-04T04:55:34;3.05;;;2.17;;
49193;SDS011;35029;50.804;12.866;2024-02-04T04:58:00;5.07;;;2.40;;
49193;SDS011;35029;50.804;12.866;2024-02-04T05:00:25;3.38;;;2.17;;
49193;SDS011;35029;50.804;12.866;2024-02-04T05:02:53;2.95;;;2.00;;
49193;SDS011;35029;50.804;12.866;2024-02-04T05:05:18;3.35;;;2.20;;
49193;SDS011;35029;50.804;12.866;2024-02-04T05:07:44;3.13;;;2.25;;
49193;SDS011;35029;50.804;12.866;2024-02-04T05:10:17;3.45;;;2.40;;
49193;SDS011;35029;50.804;12.866;2024-02-04T05:12:43;3.22;;;2.28;;
49193;SDS011;35029;50.804;12.866;2024-02-04T05:15:08;3.38;;;2.45;;
49193;SDS011;35029;50.804;12.866;2024-02-04T05:17:34;3.78;;;2.45;;
49193;SDS011;35029;50.804;12.866;2024-02-04T05:20:00;3.38;;;2.28;;
49193;SDS011;35029;50.804;12.866;2024-02-04T05:22:27;2.50;;;2.30;;
49193;SDS011;35029;50.804;12.866;2024-02-04T05:24:53;3.00;;;2.15;;
49193;SDS011;35029;50.804;12.866;2024-02-04T05:27:18;2.42;;;2.22;;
49193;SDS011;35029;50.804;12.866;2024-02-04T05:29:44;4.20;;;2.47;;
49193;SDS011;35029;50.804;12.866;2024-02-04T05:32:10;3.17;;;2.70;;
49193;SDS011;35029;50.804;12.866;2024-02-04T05:34:36;5.40;;;2.65;;
49193;SDS011;35029;50.804;12.866;2024-02-04T05:37:02;2.67;;;2.47;;
49193;SDS011;35029;50.804;12.866;2024-02-04T05:39:28;2.70;;;2.22;;
49193;SDS011;35029;50.804;12.866;2024-02-04T05:41:53;3.55;;;2.20;;
49193;SDS011;35029;50.804;12.866;2024-02-04T05:44:20;3.63;;;2.13;;
49193;SDS011;35029;50.804;12.866;2024-02-04T05:46:46;2.78;;;2.45;;
49193;SDS011;35029;50.804;12.866;2024-02-04T05:49:12;2.53;;;2.33;;
49193;SDS011;35029;50.804;12.866;2024-02-04T05:51:38;5.15;;;2.53;;
49193;SDS011;35029;50.804;12.866;2024-02-04T05:54:05;2.38;;;2.17;;
49193;SDS011;35029;50.804;12.866;2024-02-04T05:56:31;2.97;;;2.60;;
49193;SDS011;35029;50.804;12.866;2024-02-04T05:58:56;3.65;;;2.03;;
49193;SDS011;35029;50.804;12.866;2024-02-04T06:01:22;2.03;;;1.83;;
49193;SDS011;35029;50.804;12.866;2024-02-04T06:03:47;2.08;;;1.92;;
49193;SDS011;35029;50.804;12.866;2024-02-04T06:06:16;2.40;;;1.77;;
49193;SDS011;35029;50.804;12.866;2024-02-04T06:08:45;2.90;;;1.80;;
49193;SDS011;35029;50.804;12.866;2024-02-04T06:11:14;3.90;;;1.83;;
49193;SDS011;35029;50.804;12.866;2024-02-04T06:13:44;3.17;;;1.50;;
49193;SDS011;35029;50.804;12.866;2024-02-04T06:16:11;1.45;;;1.15;;
49193;SDS011;35029;50.804;12.866;2024-02-04T06:18:39;1.55;;;1.45;;
49193;SDS011;35029;50.804;12.866;2024-02-04T06:21:05;1.52;;;1.33;;
49193;SDS011;35029;50.804;12.866;2024-02-04T06:23:31;1.27;;;1.17;;
49193;SDS011;35029;50.804;12.866;2024-02-04T06:25:57;1.20;;;1.10;;
49193;SDS011;35029;50.804;12.866;2024-02-04T06:28:22;1.05;;;0.95;;
49193;SDS011;35029;50.804;12.866;2024-02-04T06:30:48;1.00;;;0.90;;
49193;SDS011;35029;50.804;12.866;2024-02-04T06:33:14;0.80;;;0.80;;
49193;SDS011;35029;50.804;12.866;2024-02-04T06:35:40;1.25;;;1.10;;
49193;SDS011;35029;50.804;12.866;2024-02-04T06:38:06;1.45;;;1.10;;
49193;SDS011;35029;50.804;12.866;2024-02-04T06:40:31;1.02;;;0.93;;
49193;SDS011;35029;50.804;12.866;2024-02-04T06:42:57;1.08;;;0.98;;
49193;SDS011;35029;50.804;12.866;2024-02-04T06:45:22;0.93;;;0.90;;
49193;SDS011;35029;50.804;12.866;2024-02-04T06:47:48;0.80;;;0.80;;
49193;SDS011;35029;50.804;12.866;2024-02-04T06:50:13;1.00;;;0.90;;
49193;SDS011;35029;50.804;12.866;2024-02-04T06:52:39;0.70;;;0.70;;
49193;SDS011;35029;50.804;12.866;2024-02-04T06:55:05;1.55;;;0.95;;
49193;SDS011;35029;50.804;12.866;2024-02-04T06:57:31;1.67;;;0.77;;
49193;SDS011;35029;50.804;12.866;2024-02-04T06:59:57;1.67;;;1.20;;
49193;SDS011;35029;50.804;12.866;2024-02-04T07:02:22;2.22;;;1.05;;
49193;SDS011;35029;50.804;12.866;2024-02-04T07:04:48;1.02;;;0.90;;
49193;SDS011;35029;50.804;12.866;2024-02-04T07:07:13;1.35;;;1.20;;
49193;SDS011;35029;50.804;12.866;2024-02-04T07:09:39;1.15;;;1.05;;
49193;SDS011;35029;50.804;12.866;2024-02-04T07:12:05;1.17;;;1.05;;
49193;SDS011;35029;50.804;12.866;2024-02-04T07:14:30;1.00;;;0.80;;
49193;SDS011;35029;50.804;12.866;2024-02-04T07:16:56;1.63;;;1.15;;
49193;SDS011;35029;50.804;12.866;2024-02-04T07:19:21;1.17;;;1.02;;
49193;SDS011;35029;50.804;12.866;2024-02-04T07:21:47;0.90;;;0.90;;
49193;SDS011;35029;50.804;12.866;2024-02-04T07:24:12;1.00;;;1.00;;
49193;SDS011;35029;50.804;12.866;2024-02-04T07:26:39;1.42;;;0.80;;
49193;SDS011;35029;50.804;12.866;2024-02-04T07:29:05;1.10;;;0.73;;
49193;SDS011;35029;50.804;12.866;2024-02-04T07:31:30;0.77;;;0.77;;
49193;SDS011;35029;50.804;12.866;2024-02-04T07:33:56;4.47;;;0.95;;
49193;SDS011;35029;50.804;12.866;2024-02-04T07:36:21;0.70;;;0.70;;
49193;SDS011;35029;50.804;12.866;2024-02-04T07:38:47;0.80;;;0.80;;
49193;SDS011;35029;50.804;12.866;2024-02-04T07:41:15;0.75;;;0.65;;
49193;SDS011;35029;50.804;12.866;2024-02-04T07:43:41;1.23;;;0.90;;
49193;SDS011;35029;50.804;12.866;2024-02-04T07:46:09;2.40;;;0.80;;
49193;SDS011;35029;50.804;12.866;2024-02-04T07:48:34;5.68;;;0.85;;
49193;SDS011;35029;50.804;12.866;2024-02-04T07:51:00;0.63;;;0.50;;
49193;SDS011;35029;50.804;12.866;2024-02-04T07:53:25;0.45;;;0.45;;
49193;SDS011;35029;50.804;12.866;2024-02-04T07:55:51;0.77;;;0.60;;
49193;SDS011;35029;50.804;12.866;2024-02-04T07:58:16;0.43;;;0.43;;
49193;SDS011;35029;50.804;12.866;2024-02-04T08:00:42;0.50;;;0.50;;
49193;SDS011;35029;50.804;12.866;2024-02-04T08:03:07;0.70;;;0.70;;
49193;SDS011;35029;50.804;12.866;2024-02-04T08:05:33;0.60;;;0.60;;
49193;SDS011;35029;50.804;12.866;2024-02-04T08:08:00;0.60;;;0.60;;
49193;SDS011;35029;50.804;12.866;2024-02-04T08:10:26;2.03;;;0.68;;
49193;SDS011;35029;50.804;12.866;2024-02-04T08:12:52;1.05;;;0.60;;
49193;SDS011;35029;50.804;12.866;2024-02-04T08:15:19;0.63;;;0.63;;
49193;SDS011;35029;50.804;12.866;2024-02-04T08:17:45;0.60;;;0.50;;
49193;SDS011;35029;50.804;12.866;2024-02-04T08:20:11;1.02;;;0.70;;
49193;SDS011;35029;50.804;12.866;2024-02-04T08:22:37;0.60;;;0.55;;
49193;SDS011;35029;50.804;12.866;2024-02-04T08:25:03;0.80;;;0.50;;
49193;SDS011;35029;50.804;12.866;2024-02-04T08:27:30;1.15;;;0.60;;
49193;SDS011;35029;50.804;12.866;2024-02-04T08:29:56;0.63;;;0.57;;
49193;SDS011;35029;50.804;12.866;2024-02-04T08:32:22;0.73;;;0.60;;
49193;SDS011;35029;50.804;12.866;2024-02-04T08:34:47;0.60;;;0.60;;
49193;SDS011;35029;50.804;12.866;2024-02-04T08:37:13;0.40;;;0.40;;
49193;SDS011;35029;50.804;12.866;2024-02-04T08:39:39;0.55;;;0.50;;
49193;SDS011;35029;50.804;12.866;2024-02-04T08:42:04;0.40;;;0.40;;
49193;SDS011;35029;50.804;12.866;2024-02-04T08:44:30;0.50;;;0.50;;
49193;SDS011;35029;50.804;12.866;2024-02-04T08:46:55;0.40;;;0.40;;
49193;SDS011;35029;50.804;12.866;2024-02-04T08:49:21;3.30;;;0.60;;
49193;SDS011;35029;50.804;12.866;2024-02-04T08:51:47;0.57;;;0.57;;
49193;SDS011;35029;50.804;12.866;2024-02-04T08:54:12;0.47;;;0.47;;
49193;SDS011;35029;50.804;12.866;2024-02-04T08:56:38;1.30;;;0.60;;
49193;SDS011;35029;50.804;12.866;2024-02-04T08:59:04;0.95;;;0.80;;
49193;SDS011;35029;50.804;12.866;2024-02-04T09:01:31;0.47;;;0.47;;
49193;SDS011;35029;50.804;12.866;2024-02-04T09:03:56;0.40;;;0.40;;
49193;SDS011;35029;50.804;12.866;2024-02-04T09:06:22;0.57;;;0.57;;
49193;SDS011;35029;50.804;12.866;2024-02-04T09:08:48;0.60;;;0.60;;
49193;SDS011;35029;50.804;12.866;2024-02-04T09:11:14;0.60;;;0.60;;
49193;SDS011;35029;50.804;12.866;2024-02-04T09:13:44;1.13;;;0.60;;
49193;SDS011;35029;50.804;12.866;2024-02-04T09:16:10;1.13;;;0.82;;
49193;SDS011;35029;50.804;12.866;2024-02-04T09:18:36;0.80;;;0.60;;
49193;SDS011;35029;50.804;12.866;2024-02-04T09:21:02;0.88;;;0.80;;
49193;SDS011;35029;50.804;12.866;2024-02-04T09:23:28;1.00;;;0.65;;
49193;SDS011;35029;50.804;12.866;2024-02-04T09:25:53;0.93;;;0.60;;
49193;SDS011;35029;50.804;12.866;2024-02-04T09:28:19;1.05;;;0.85;;
49193;SDS011;35029;50.804;12.866;2024-02-04T09:30:45;0.88;;;0.70;;
49193;SDS011;35029;50.804;12.866;2024-02-04T09:33:11;0.70;;;0.70;;
49193;SDS011;35029;50.804;12.866;2024-02-04T09:35:38;1.15;;;0.80;;
49193;SDS011;35029;50.804;12.866;2024-02-04T09:38:04;0.77;;;0.77;;
49193;SDS011;35029;50.804;12.866;2024-02-04T09:40:29;0.80;;;0.80;;
49193;SDS011;35029;50.804;12.866;2024-02-04T09:42:56;1.23;;;0.90;;
49193;SDS011;35029;50.804;12.866;2024-02-04T09:45:23;1.10;;;1.00;;
49193;SDS011;35029;50.804;12.866;2024-02-04T09:47:49;2.53;;;0.80;;
49193;SDS011;35029;50.804;12.866;2024-02-04T09:50:18;0.68;;;0.68;;
49193;SDS011;35029;50.804;12.866;2024-02-04T09:52:47;0.70;;;0.70;;
49193;SDS011;35029;50.804;12.866;2024-02-04T09:55:15;0.95;;;0.77;;
49193;SDS011;35029;50.804;12.866;2024-02-04T09:57:42;0.80;;;0.70;;
49193;SDS011;35029;50.804;12.866;2024-02-04T10:00:09;0.65;;;0.65;;
49193;SDS011;35029;50.804;12.866;2024-02-04T10:02:38;0.70;;;0.60;;
49193;SDS011;35029;50.804;12.866;2024-02-04T10:05:05;0.70;;;0.68;;
49193;SDS011;35029;50.804;12.866;2024-02-04T10:07:32;0.55;;;0.55;;
49193;SDS011;35029;50.804;12.866;2024-02-04T10:09:57;0.50;;;0.50;;
49193;SDS011;35029;50.804;12.866;2024-02-04T10:12:23;0.95;;;0.65;;
49193;SDS011;35029;50.804;12.866;2024-02-04T10:14:48;0.95;;;0.70;;
49193;SDS011;35029;50.804;12.866;2024-02-04T10:17:17;1.38;;;0.60;;
49193;SDS011;35029;50.804;12.866;2024-02-04T10:19:47;0.60;;;0.60;;
49193;SDS011;35029;50.804;12.866;2024-02-04T10:22:13;1.50;;;0.60;;
49193;SDS011;35029;50.804;12.866;2024-02-04T10:24:39;1.13;;;0.60;;
49193;SDS011;35029;50.804;12.866;2024-02-04T10:27:05;1.08;;;0.98;;
49193;SDS011;35029;50.804;12.866;2024-02-04T10:29:30;0.80;;;0.80;;
49193;SDS011;35029;50.804;12.866;2024-02-04T10:31:56;2.03;;;0.90;;
49193;SDS011;35029;50.804;12.866;2024-02-04T10:34:23;1.23;;;0.80;;
49193;SDS011;35029;50.804;12.866;2024-02-04T10:36:53;1.13;;;0.95;;
49193;SDS011;35029;50.804;12.866;2024-02-04T10:39:18;1.60;;;0.82;;
49193;SDS011;35029;50.804;12.866;2024-02-04T10:41:51;1.50;;;0.90;;
49193;SDS011;35029;50.804;12.866;2024-02-04T10:44:18;1.65;;;1.00;;
49193;SDS011;35029;50.804;12.866;2024-02-04T10:46:47;0.60;;;0.60;;
49193;SDS011;35029;50.804;12.866;2024-02-04T10:49:14;2.35;;;0.82;;
49193;SDS011;35029;50.804;12.866;2024-02-04T10:51:41;1.33;;;1.00;;
49193;SDS011;35029;50.804;12.866;2024-02-04T10:54:08;1.77;;;0.77;;
49193;SDS011;35029;50.804;12.866;2024-02-04T10:56:41;1.38;;;1.02;;
49193;SDS011;35029;50.804;12.866;2024-02-04T10:59:10;4.80;;;4.28;;
49193;SDS011;35029;50.804;12.866;2024-02-04T11:01:40;3.70;;;2.00;;
49193;SDS011;35029;50.804;12.866;2024-02-04T11:04:07;1.98;;;1.80;;
49193;SDS011;35029;50.804;12.866;2024-02-04T11:06:36;2.80;;;2.55;;
49193;SDS011;35029;50.804;12.866;2024-02-04T11:09:03;2.20;;;1.63;;
49193;SDS011;35029;50.804;12.866;2024-02-04T11:11:31;2.55;;;1.40;;
49193;SDS011;35029;50.804;12.866;2024-02-04T11:13:59;1.40;;;1.30;;
49193;SDS011;35029;50.804;12.866;2024-02-04T11:27:46;1.30;;;1.20;;
49193;SDS011;35029;50.804;12.866;2024-02-04T11:30:20;1.52;;;1.42;;
49193;SDS011;35029;50.804;12.866;2024-02-04T11:33:01;2.00;;;1.50;;
49193;SDS011;35029;50.804;12.866;2024-02-04T11:35:29;1.77;;;1.55;;
49193;SDS011;35029;50.804;12.866;2024-02-04T11:37:55;2.92;;;1.70;;
49193;SDS011;35029;50.804;12.866;2024-02-04T11:40:21;2.65;;;1.80;;
49193;SDS011;35029;50.804;12.866;2024-02-04T11:42:49;2.08;;;1.30;;
49193;SDS011;35029;50.804;12.866;2024-02-04T11:45:15;3.58;;;1.50;;
49193;SDS011;35029;50.804;12.866;2024-02-04T11:47:41;1.30;;;1.20;;
49193;SDS011;35029;50.804;12.866;2024-02-04T11:50:09;2.88;;;1.58;;
49193;SDS011;35029;50.804;12.866;2024-02-04T11:52:35;2.15;;;1.40;;
49193;SDS011;35029;50.804;12.866;2024-02-04T11:55:01;1.50;;;1.40;;
49193;SDS011;35029;50.804;12.866;2024-02-04T11:57:29;1.33;;;1.10;;
49193;SDS011;35029;50.804;12.866;2024-02-04T11:59:55;1.45;;;1.35;;
49193;SDS011;35029;50.804;12.866;2024-02-04T12:02:20;1.40;;;1.30;;
49193;SDS011;35029;50.804;12.866;2024-02-04T12:04:46;2.13;;;1.92;;
49193;SDS011;35029;50.804;12.866;2024-02-04T12:07:13;1.83;;;1.35;;
49193;SDS011;35029;50.804;12.866;2024-02-04T12:09:40;2.78;;;1.55;;
49193;SDS011;35029;50.804;12.866;2024-02-04T12:12:07;2.00;;;1.45;;
49193;SDS011;35029;50.804;12.866;2024-02-04T12:14:36;3.47;;;1.38;;
49193;SDS011;35029;50.804;12.866;2024-02-04T12:17:08;2.33;;;1.27;;
49193;SDS011;35029;50.804;12.866;2024-02-04T12:19:35;1.40;;;1.27;;
49193;SDS011;35029;50.804;12.866;2024-02-04T12:22:04;2.08;;;1.70;;
49193;SDS011;35029;50.804;12.866;2024-02-04T12:24:35;4.65;;;1.55;;
49193;SDS011;35029;50.804;12.866;2024-02-04T12:27:02;3.25;;;1.20;;
49193;SDS011;35029;50.804;12.866;2024-02-04T12:29:29;3.22;;;1.30;;
49193;SDS011;35029;50.804;12.866;2024-02-04T12:32:01;1.67;;;1.52;;
49193;SDS011;35029;50.804;12.866;2024-02-04T12:34:28;2.33;;;1.50;;
49193;SDS011;35029;50.804;12.866;2024-02-04T12:36:58;5.35;;;1.50;;
49193;SDS011;35029;50.804;12.866;2024-02-04T12:39:27;3.13;;;1.45;;
49193;SDS011;35029;50.804;12.866;2024-02-04T12:41:53;1.77;;;1.63;;
49193;SDS011;35029;50.804;12.866;2024-02-04T12:44:19;1.75;;;1.42;;
49193;SDS011;35029;50.804;12.866;2024-02-04T12:46:49;4.75;;;1.98;;
49193;SDS011;35029;50.804;12.866;2024-02-04T12:49:20;2.47;;;1.92;;
49193;SDS011;35029;50.804;12.866;2024-02-04T12:52:06;6.47;;;2.05;;
49193;SDS011;35029;50.804;12.866;2024-02-04T12:54:45;3.88;;;2.00;;
49193;SDS011;35029;50.804;12.866;2024-02-04T12:57:21;1.95;;;1.50;;
49193;SDS011;35029;50.804;12.866;2024-02-04T12:59:47;2.42;;;1.95;;
49193;SDS011;35029;50.804;12.866;2024-02-04T13:02:13;2.88;;;2.10;;
49193;SDS011;35029;50.804;12.866;2024-02-04T13:04:41;4.95;;;2.03;;
49193;SDS011;35029;50.804;12.866;2024-02-04T13:09:38;2.47;;;2.10;;
49193;SDS011;35029;50.804;12.866;2024-02-04T13:12:04;2.50;;;2.00;;
49193;SDS011;35029;50.804;12.866;2024-02-04T13:14:31;2.42;;;2.10;;
49193;SDS011;35029;50.804;12.866;2024-02-04T13:16:57;1.52;;;1.42;;
49193;SDS011;35029;50.804;12.866;2024-02-04T13:19:23;2.17;;;1.92;;
49193;SDS011;35029;50.804;12.866;2024-02-04T13:21:48;2.20;;;2.00;;
49193;SDS011;35029;50.804;12.866;2024-02-04T13:24:14;2.45;;;1.90;;
49193;SDS011;35029;50.804;12.866;2024-02-04T13:26:39;1.77;;;1.65;;
49193;SDS011;35029;50.804;12.866;2024-02-04T13:29:05;2.08;;;1.95;;
49193;SDS011;35029;50.804;12.866;2024-02-04T13:31:31;2.25;;;1.98;;
49193;SDS011;35029;50.804;12.866;2024-02-04T13:33:56;1.52;;;1.42;;
49193;SDS011;35029;50.804;12.866;2024-02-04T13:36:22;3.83;;;1.83;;
49193;SDS011;35029;50.804;12.866;2024-02-04T13:38:48;3.40;;;2.97;;
49193;SDS011;35029;50.804;12.866;2024-02-04T13:41:14;3.85;;;2.30;;
49193;SDS011;35029;50.804;12.866;2024-02-04T13:43:40;3.30;;;2.05;;
49193;SDS011;35029;50.804;12.866;2024-02-04T13:46:06;2.60;;;1.85;;
49193;SDS011;35029;50.804;12.866;2024-02-04T13:48:32;1.70;;;1.60;;
49193;SDS011;35029;50.804;12.866;2024-02-04T13:50:57;5.93;;;1.83;;
49193;SDS011;35029;50.804;12.866;2024-02-04T13:53:23;1.73;;;1.63;;
49193;SDS011;35029;50.804;12.866;2024-02-04T13:55:49;1.88;;;1.70;;
49193;SDS011;35029;50.804;12.866;2024-02-04T13:58:15;1.73;;;1.63;;
49193;SDS011;35029;50.804;12.866;2024-02-04T14:00:40;3.83;;;2.72;;
49193;SDS011;35029;50.804;12.866;2024-02-04T14:03:06;3.25;;;2.95;;
49193;SDS011;35029;50.804;12.866;2024-02-04T14:05:32;4.72;;;2.90;;
49193;SDS011;35029;50.804;12.866;2024-02-04T14:07:58;2.70;;;2.20;;
49193;SDS011;35029;50.804;12.866;2024-02-04T14:10:25;3.03;;;2.10;;
49193;SDS011;35029;50.804;12.866;2024-02-04T14:12:50;2.95;;;2.38;;
49193;SDS011;35029;50.804;12.866;2024-02-04T14:15:16;2.17;;;1.50;;
49193;SDS011;35029;50.804;12.866;2024-02-04T14:17:42;2.08;;;1.70;;
49193;SDS011;35029;50.804;12.866;2024-02-04T14:20:07;2.05;;;1.50;;
49193;SDS011;35029;50.804;12.866;2024-02-04T14:22:34;2.15;;;1.50;;
49193;SDS011;35029;50.804;12.866;2024-02-04T14:25:00;2.25;;;1.60;;
49193;SDS011;35029;50.804;12.866;2024-02-04T14:27:26;3.45;;;1.67;;
49193;SDS011;35029;50.804;12.866;2024-02-04T14:29:52;1.42;;;1.33;;
49193;SDS011;35029;50.804;12.866;2024-02-04T14:32:18;2.92;;;1.98;;
49193;SDS011;35029;50.804;12.866;2024-02-04T14:34:46;2.10;;;1.90;;
49193;SDS011;35029;50.804;12.866;2024-02-04T14:37:12;1.55;;;1.45;;
49193;SDS011;35029;50.804;12.866;2024-02-04T14:39:38;2.10;;;1.90;;
49193;SDS011;35029;50.804;12.866;2024-02-04T14:42:04;3.97;;;1.20;;
49193;SDS011;35029;50.804;12.866;2024-02-04T14:44:29;2.72;;;1.45;;
49193;SDS011;35029;50.804;12.866;2024-02-04T14:46:55;2.28;;;1.67;;
49193;SDS011;35029;50.804;12.866;2024-02-04T14:49:20;2.15;;;1.88;;